Flight Track Log - Related Links

Times and Time Zones

All times are in EDT time to prevent confusion due to time zone crossing. See the RPA4901 flight status page for this flight to view local times or setup timezone preferences in your user account.

Time Position Orientation Groundspeed Altitude Reporting Facility
EDT Latitude Longitude Course Direction KTS MPH feet Rate Location/Type
Tue 09:19:40 PM 39.8000 -104.6667 207° Southwest 186 214 7,100  Level Denver TRACON
Tue 09:20:40 PM 39.7333 -104.6833 191° South 234 269 8,800 1,685 Climbing Denver TRACON
Tue 09:21:09 PM 39.7103 -104.7014 211° Southwest 239 275 9,600 1,533 Climbing Denver Center
Tue 09:22:10 PM 39.6278 -104.7289 194° South 280 322 11,100 1,610 Climbing Denver Center
Tue 09:23:12 PM 39.5539 -104.7686 203° Southwest 286 329 12,900 1,707 Climbing Denver Center
Tue 09:24:13 PM 39.4864 -104.8214 211° Southwest 283 326 14,600 1,512 Climbing Denver Center
Tue 09:25:00 PM 39.3716 -104.9134 207° Southwest  Level FlightAware Approximate
Tue 09:25:15 PM 39.4075 -104.8803 210° Southwest 303 349 16,000  Level Denver Center
Tue 09:26:17 PM 39.3328 -104.9281 206° Southwest 302 348 17,600 1,415 Climbing Denver Center
Tue 09:27:18 PM 39.2594 -104.9800 209° Southwest 301 346 18,900 1,366 Climbing Denver Center
Tue 09:28:20 PM 39.1814 -105.0356 209° Southwest 299 344 20,400 1,452 Climbing Denver Center
Tue 09:29:22 PM 39.1081 -105.0817 206° Southwest 288 331 21,900 1,317 Climbing Denver Center
Tue 09:30:23 PM 39.0394 -105.1211 204° Southwest 286 329 23,100 1,024 Climbing Denver Center
Tue 09:31:25 PM 38.9603 -105.1681 205° Southwest 288 331 24,000 397 Climbing Denver Center
Tue 09:32:39 PM 38.8817 -105.2128 204° Southwest 302 348 24,000  Level Denver Center
Tue 09:33:41 PM 38.7753 -105.2767 205° Southwest 326 375 24,000  Level Denver Center
Tue 09:34:42 PM 38.6778 -105.3328 204° Southwest 346 398 24,000  Level Denver Center
Tue 09:35:44 PM 38.5872 -105.3792 202° Southwest 354 407 24,000  Level Denver Center
Tue 09:36:46 PM 38.4892 -105.4172 197° South 356 410 24,000  Level Denver Center
Tue 09:37:59 PM 38.3911 -105.4561 197° South 355 409 24,000  Level Denver Center
Tue 09:39:01 PM 38.2889 -105.4986 198° South 350 403 24,000  Level Denver Center
Tue 09:40:03 PM 38.1839 -105.5400 197° South 350 403 24,000  Level Denver Center
Tue 09:41:05 PM 38.0956 -105.5758 198° South 349 402 24,000  Level Denver Center
Tue 09:42:06 PM 37.9869 -105.6203 198° South 361 415 24,000  Level Denver Center
Tue 09:43:08 PM 37.8983 -105.6564 198° South 352 405 24,000  Level Denver Center
Tue 09:44:10 PM 37.7953 -105.6975 197° South 348 400 24,000  Level Denver Center
Tue 09:45:11 PM 37.7061 -105.7328 197° South 350 403 24,000  Level Denver Center
Tue 09:46:13 PM 37.6181 -105.7692 198° South 349 402 24,000  Level Denver Center
Tue 09:47:14 PM 37.5131 -105.8100 197° South 351 404 24,000  Level Denver Center
Tue 09:48:16 PM 37.4236 -105.8458 198° South 351 404 24,000  Level Denver Center
Tue 09:49:18 PM 37.3225 -105.8875 198° South 348 400 24,000  Level Denver Center
Tue 09:50:19 PM 37.2322 -105.9222 197° South 349 402 24,000  Level Denver Center
Tue 09:51:21 PM 37.1267 -105.9617 197° South 351 404 24,000  Level Denver Center
Tue 09:52:23 PM 37.0386 -105.9986 199° South 351 404 24,000  Level Denver Center
Tue 09:53:24 PM 36.9478 -106.0344 197° South 355 409 24,000  Level Denver Center
Tue 09:54:26 PM 36.8394 -106.0769 197° South 362 417 24,000  Level Denver Center
Tue 09:55:28 PM 36.7489 -106.1125 197° South 358 412 24,000  Level Denver Center
Tue 09:56:29 PM 36.6611 -106.1469 197° South 351 404 24,000  Level Denver Center
Tue 09:57:31 PM 36.5683 -106.1817 197° South 349 402 24,000  Level Denver Center
Tue 09:58:33 PM 36.4572 -106.2256 198° South 349 402 24,000  Level Denver Center
Tue 09:59:34 PM 36.3650 -106.2606 197° South 348 400 24,000  Level Denver Center
Tue 10:00:36 PM 36.2747 -106.2969 198° South 343 395 24,000  Level Denver Center
Tue 10:01:38 PM 36.1828 -106.3325 197° South 345 397 24,000  Level Denver Center
Tue 10:02:45 PM 36.0722 -106.3772 198° South 347 399 24,000 -703 Level Albuquerque Center
Tue 10:03:46 PM 35.9792 -106.4194 200° South 353 406 22,500 -1,525 Descending Albuquerque Center
Tue 10:04:47 PM 35.8781 -106.4614 199° South 356 410 20,900 -1,463 Descending Albuquerque Center
Tue 10:05:49 PM 35.7906 -106.4997 200° South 351 404 19,500 -1,500 Descending Albuquerque Center
Tue 10:06:35 PM 35.7139 -106.5325 199° South 357 411 18,200 -1,574 Descending Albuquerque Center
Tue 10:06:50 PM 35.6992 -106.5389 199° South 356 410 17,900 -1,297 Descending Albuquerque Center
Tue 10:07:12 PM 35.6564 -106.5581 200° South 358 412 17,400 -1,475 Descending Albuquerque Center
Tue 10:07:51 PM 35.6075 -106.5786 199° South 353 406 16,400 -1,800 Descending Albuquerque Center
Tue 10:08:12 PM 35.5667 -106.5944 198° South 341 392 15,600 -1,742 Descending Albuquerque Center
Tue 10:08:53 PM 35.5211 -106.6161 201° Southwest 336 387 14,600 -1,672 Descending Albuquerque Center
Tue 10:09:13 PM 35.4836 -106.6317 199° South 311 358 13,900 -1,672 Descending Albuquerque Center
Tue 10:09:54 PM 35.4400 -106.6497 199° South 316 364 12,900 -1,770 Descending Albuquerque Center
Tue 10:10:14 PM 35.4042 -106.6653 199° South 301 346 12,100 -1,645 Descending Albuquerque Center
Tue 10:10:56 PM 35.3639 -106.6844 201° Southwest 297 342 11,200 -1,500 Descending Albuquerque Center
Tue 10:11:14 PM 35.3292 -106.7003 200° South 288 331 10,600 -1,475 Descending Albuquerque Center
Tue 10:11:57 PM 35.2756 -106.7239 200° South 287 330 9,700 -1,279 Descending Albuquerque Center
Tue 10:12:15 PM 35.2522 -106.7358 203° Southwest 269 310 9,300 -689 Descending Albuquerque Center
Tue 10:12:58 PM 35.2058 -106.7589 202° Southwest 277 319 9,000 -300 Descending Albuquerque Center
Tue 10:13:15 PM 35.1836 -106.7717 205° Southwest 269 310 9,000  Level Albuquerque Center
Tue 10:14:16 PM 35.1153 -106.8072 203° Southwest 273 314 9,000 -283 Level Albuquerque Center
Tue 10:15:01 PM 35.0631 -106.8314 201° Southwest 273 314 8,500 -689 Descending Albuquerque Center
Tue 10:15:17 PM 35.0433 -106.8361 191° South 268 308 8,300 -590 Descending Albuquerque Center
Tue 10:16:02 PM 34.9972 -106.8053 151° Southeast 261 300 7,900 -600 Descending Albuquerque Center
Tue 10:16:17 PM 34.9853 -106.7964 149° Southeast 234 269 7,700 -492 Descending Albuquerque Center
Tue 10:17:03 PM 34.9467 -106.7589 141° Southeast 241 277 7,400 -295 Descending Albuquerque Center
Tue 10:17:18 PM 34.9444 -106.7447 101° East 204 235 7,400 -387 Level Albuquerque Center
Tue 10:18:05 PM 34.9572 -106.7053 68° East 200 230 7,000 -611 Descending Albuquerque Center
Tue 10:19:06 PM 34.9847 -106.6750 42° Northeast 157 181 6,300 -689 Descending Albuquerque Center
Tue 10:20:07 PM 35.0108 -106.6436 45° Northeast 140 161 5,600 -488 Descending Albuquerque Center
Tue 10:21:09 PM 35.0403 -106.6083 44° Northeast 136 157 5,300 -290 Descending Albuquerque Center

Login

Don't have an account? Register now (free) for customized features, flight alerts, and more!